Time;durP1;ratioP1;P1;durP2;ratioP2;P2;SDS_P1;SDS_P2;PMS_P1;PMS_P2;Temp;Humidity;BMP_temperature;BMP_pressure;BME280_temperature;BME280_humidity;BME280_pressure;Samples;Min_cycle;Max_cycle;Signal;HPM_P1;HPM_P2
2022/10/26 05:46:46;;;;;;;13.40;8.30;;;;;;;;;;5115354;28;20028;-78
2022/10/26 05:49:31;;;;;;;16.10;7.90;;;;;;;;;;5113661;28;20104;-78
2022/10/26 05:52:17;;;;;;;13.25;7.35;;;;;;;;;;5115428;28;20107;-77
2022/10/26 05:55:03;;;;;;;12.88;7.65;;;;;;;;;;5114216;28;20015;-78
2022/10/26 05:57:48;;;;;;;12.73;7.72;;;;;;;;;;5112724;28;20019;-79
2022/10/26 06:00:34;;;;;;;13.93;8.10;;;;;;;;;;5113952;28;20023;-79
2022/10/26 06:03:32;;;;;;;14.73;8.15;;;;;;;;;;5114030;28;20035;-78
2022/10/26 06:06:18;;;;;;;14.63;8.25;;;;;;;;;;5114356;28;20023;-78
2022/10/26 06:09:04;;;;;;;16.58;7.80;;;;;;;;;;5114421;28;20035;-78
2022/10/26 06:11:49;;;;;;;14.00;8.32;;;;;;;;;;5114360;28;20035;-78
2022/10/26 06:14:35;;;;;;;12.60;7.65;;;;;;;;;;5118656;28;20027;-78
2022/10/26 06:17:24;;;;;;;16.45;7.82;;;;;;;;;;5119417;28;20354;-79
2022/10/26 06:20:20;;;;;;;15.88;7.88;;;;;;;;;;5118435;28;20026;-78
2022/10/26 06:23:06;;;;;;;31.55;8.70;;;;;;;;;;5118734;28;20092;-79
2022/10/26 06:26:06;;;;;;;26.60;8.40;;;;;;;;;;5119012;28;20437;-78
2022/10/26 06:28:58;;;;;;;13.98;7.03;;;;;;;;;;5118278;28;20023;-79
2022/10/26 06:31:44;;;;;;;14.43;7.25;;;;;;;;;;5118350;28;20034;-78
2022/10/26 06:34:32;;;;;;;11.10;6.85;;;;;;;;;;5116563;28;20032;-78
2022/10/26 06:37:18;;;;;;;14.27;7.93;;;;;;;;;;5117014;28;20023;-78
2022/10/26 06:40:05;;;;;;;15.02;7.53;;;;;;;;;;5118018;28;20023;-78
2022/10/26 06:42:50;;;;;;;14.98;7.00;;;;;;;;;;5116544;28;20085;-77
2022/10/26 06:45:37;;;;;;;14.38;6.93;;;;;;;;;;5139037;27;20043;-79
2022/10/26 06:48:27;;;;;;;9.77;6.10;;;;;;;;;;5158537;27;20079;-77
2022/10/26 06:51:14;;;;;;;10.32;6.03;;;;;;;;;;5131662;27;20023;-77
2022/10/26 06:54:06;;;;;;;11.45;5.95;;;;;;;;;;5159382;27;20083;-77
2022/10/26 06:56:52;;;;;;;13.93;5.75;;;;;;;;;;5157526;27;20023;-77
2022/10/26 06:59:41;;;;;;;8.98;6.10;;;;;;;;;;5143821;27;20027;-78
2022/10/26 07:02:27;;;;;;;9.60;6.03;;;;;;;;;;5158829;27;20394;-78
2022/10/26 07:05:13;;;;;;;12.80;6.13;;;;;;;;;;5157786;27;20019;-78
2022/10/26 07:07:58;;;;;;;8.82;5.70;;;;;;;;;;5157230;27;20018;-78
2022/10/26 07:10:45;;;;;;;10.32;5.65;;;;;;;;;;5157005;27;20015;-78
2022/10/26 07:13:30;;;;;;;10.50;6.05;;;;;;;;;;5142770;27;20068;-79
2022/10/26 07:16:16;;;;;;;8.93;5.88;;;;;;;;;;5142663;27;20095;-78
2022/10/26 07:19:02;;;;;;;8.07;5.50;;;;;;;;;;5156622;27;20031;-78
2022/10/26 07:21:47;;;;;;;11.65;6.05;;;;;;;;;;5157278;27;20007;-78
2022/10/26 07:24:33;;;;;;;7.82;5.90;;;;;;;;;;5143809;27;20039;-78
2022/10/26 07:27:19;;;;;;;10.13;5.97;;;;;;;;;;5161269;27;20034;-78
2022/10/26 07:30:05;;;;;;;8.80;6.63;;;;;;;;;;5144002;27;20018;-78
2022/10/26 07:32:57;;;;;;;9.10;6.60;;;;;;;;;;5157569;27;20364;-78
2022/10/26 07:35:42;;;;;;;9.15;5.70;;;;;;;;;;5143001;27;20019;-79
2022/10/26 07:38:28;;;;;;;9.68;5.60;;;;;;;;;;5157397;27;20015;-78
2022/10/26 07:41:13;;;;;;;10.88;5.60;;;;;;;;;;5157744;27;20444;-80
2022/10/26 07:43:59;;;;;;;9.45;5.72;;;;;;;;;;5158537;27;20022;-82
2022/10/26 07:46:45;;;;;;;9.48;5.72;;;;;;;;;;5143840;27;20456;-80
2022/10/26 07:49:30;;;;;;;11.70;5.70;;;;;;;;;;5158465;27;20039;-80
2022/10/26 07:52:16;;;;;;;8.18;5.22;;;;;;;;;;5157971;27;20030;-80
2022/10/26 07:55:01;;;;;;;8.60;5.57;;;;;;;;;;5157959;27;20030;-81
2022/10/26 07:57:47;;;;;;;8.27;6.15;;;;;;;;;;5158877;27;20023;-81
2022/10/26 08:00:33;;;;;;;13.20;6.13;;;;;;;;;;5142902;27;20057;-80
2022/10/26 08:03:18;;;;;;;9.30;5.60;;;;;;;;;;5144006;27;20019;-77
2022/10/26 08:06:05;;;;;;;8.65;5.68;;;;;;;;;;5161029;27;20043;-80
2022/10/26 08:08:51;;;;;;;8.00;5.80;;;;;;;;;;5150448;27;20019;-81
2022/10/26 08:11:36;;;;;;;17.58;6.00;;;;;;;;;;5153622;27;20467;-82
2022/10/26 08:14:22;;;;;;;10.05;5.40;;;;;;;;;;5158921;27;20014;-81
2022/10/26 08:17:08;;;;;;;8.75;5.47;;;;;;;;;;5158173;27;20026;-86
2022/10/26 08:19:53;;;;;;;8.27;6.53;;;;;;;;;;5175881;27;20025;-84
2022/10/26 08:22:39;;;;;;;7.28;5.53;;;;;;;;;;5176237;27;20031;-82
2022/10/26 08:25:24;;;;;;;8.88;5.75;;;;;;;;;;5174521;27;20029;-81
2022/10/26 08:28:13;;;;;;;6.93;5.15;;;;;;;;;;5176419;27;20029;-81
2022/10/26 08:30:58;;;;;;;7.53;4.80;;;;;;;;;;5175182;27;20066;-83
2022/10/26 08:33:44;;;;;;;7.57;5.20;;;;;;;;;;5160183;27;19999;-84
2022/10/26 08:36:29;;;;;;;8.23;5.25;;;;;;;;;;5162003;27;20045;-82
2022/10/26 08:39:15;;;;;;;12.93;4.95;;;;;;;;;;5159455;27;20080;-81
2022/10/26 08:42:03;;;;;;;7.13;4.60;;;;;;;;;;5175495;27;20019;-82
2022/10/26 08:44:57;;;;;;;14.60;9.07;;;;;;;;;;5160491;27;20456;-81
2022/10/26 08:47:45;;;;;;;12.70;7.63;;;;;;;;;;5159870;27;20026;-81
2022/10/26 08:50:36;;;;;;;10.82;6.57;;;;;;;;;;5161016;27;20034;-81
2022/10/26 08:53:26;;;;;;;8.80;5.38;;;;;;;;;;5155937;27;20028;-81
2022/10/26 08:56:12;;;;;;;9.93;6.32;;;;;;;;;;5171596;27;20019;-81
2022/10/26 08:59:00;;;;;;;11.68;5.50;;;;;;;;;;5172710;27;20025;-82
2022/10/26 09:01:45;;;;;;;6.20;4.45;;;;;;;;;;5175259;27;20010;-84
2022/10/26 09:04:33;;;;;;;10.05;5.50;;;;;;;;;;5174291;27;20014;-82
2022/10/26 09:07:35;;;;;;;6.75;5.07;;;;;;;;;;5172594;27;20060;-81
2022/10/26 09:10:27;;;;;;;6.57;4.53;;;;;;;;;;5173074;27;20011;-84
2022/10/26 09:13:24;;;;;;;7.10;4.60;;;;;;;;;;5174656;27;20077;-82
2022/10/26 09:16:20;;;;;;;6.88;4.82;;;;;;;;;;5175588;27;20041;-82
2022/10/26 09:19:22;;;;;;;9.60;4.80;;;;;;;;;;5176282;27;20049;-83
2022/10/26 09:22:17;;;;;;;7.57;4.82;;;;;;;;;;5177240;27;20010;-81
2022/10/26 09:25:11;;;;;;;6.63;4.88;;;;;;;;;;5178005;27;20010;-82
2022/10/26 09:27:59;;;;;;;8.25;4.70;;;;;;;;;;5159127;27;20042;-83
2022/10/26 09:30:45;;;;;;;9.48;5.10;;;;;;;;;;5173688;27;20057;-83
2022/10/26 09:33:34;;;;;;;7.80;5.07;;;;;;;;;;5175796;27;20055;-82
2022/10/26 09:36:21;;;;;;;7.90;4.57;;;;;;;;;;5173609;27;20034;-82
2022/10/26 09:39:12;;;;;;;9.23;4.93;;;;;;;;;;5170062;27;20010;-83
2022/10/26 09:42:00;;;;;;;9.10;5.00;;;;;;;;;;5155263;27;20356;-83
2022/10/26 09:44:49;;;;;;;7.53;4.70;;;;;;;;;;5171495;27;20046;-82
2022/10/26 09:47:37;;;;;;;8.85;4.72;;;;;;;;;;5172946;27;20022;-84
2022/10/26 09:50:32;;;;;;;6.78;4.40;;;;;;;;;;5170657;27;20015;-82
2022/10/26 09:53:18;;;;;;;6.03;4.25;;;;;;;;;;5170029;27;20479;-82
2022/10/26 09:56:08;;;;;;;6.13;4.28;;;;;;;;;;5170995;27;20023;-83
2022/10/26 09:58:58;;;;;;;7.38;4.35;;;;;;;;;;5173438;27;20015;-83
2022/10/26 10:01:44;;;;;;;6.38;4.40;;;;;;;;;;5176195;27;20026;-82
2022/10/26 10:04:30;;;;;;;7.82;5.13;;;;;;;;;;5177190;27;20049;-83
2022/10/26 10:07:17;;;;;;;7.80;4.53;;;;;;;;;;5179033;27;19999;-82
2022/10/26 10:10:14;;;;;;;7.60;4.15;;;;;;;;;;5178347;27;20102;-83
2022/10/26 10:13:13;;;;;;;9.25;4.68;;;;;;;;;;5178299;27;20138;-81
2022/10/26 10:16:02;;;;;;;6.97;4.03;;;;;;;;;;5178987;27;20018;-83
2022/10/26 10:18:54;;;;;;;8.07;5.47;;;;;;;;;;5174466;27;20019;-81
2022/10/26 10:21:43;;;;;;;10.20;4.95;;;;;;;;;;5177357;27;20060;-83
2022/10/26 10:24:32;;;;;;;5.32;3.88;;;;;;;;;;5175919;27;20067;-82
2022/10/26 10:27:18;;;;;;;5.43;4.18;;;;;;;;;;5179310;27;20039;-82
2022/10/26 10:30:33;;;;;;;4.63;3.85;;;;;;;;;;5152973;27;20136;-79
2022/10/26 10:33:18;;;;;;;8.07;3.80;;;;;;;;;;5148087;27;20075;-78
2022/10/26 10:36:06;;;;;;;7.72;4.15;;;;;;;;;;5172576;27;20022;-78
2022/10/26 10:38:52;;;;;;;4.72;3.88;;;;;;;;;;5174025;27;20015;-79
2022/10/26 10:41:38;;;;;;;5.03;4.15;;;;;;;;;;5154798;27;20084;-78
2022/10/26 10:44:26;;;;;;;10.52;4.30;;;;;;;;;;5164607;27;20007;-79
2022/10/26 10:47:17;;;;;;;5.78;4.20;;;;;;;;;;5171341;27;20038;-79
2022/10/26 10:50:14;;;;;;;5.93;4.25;;;;;;;;;;5164418;27;20359;-79
2022/10/26 10:53:18;;;;;;;5.18;4.28;;;;;;;;;;5166225;27;20071;-77
2022/10/26 10:56:10;;;;;;;5.43;3.72;;;;;;;;;;5176910;27;20015;-79
2022/10/26 10:59:04;;;;;;;7.45;4.43;;;;;;;;;;5168506;27;20014;-79
2022/10/26 11:02:13;;;;;;;6.75;4.13;;;;;;;;;;5165943;27;20022;-78
2022/10/26 11:05:18;;;;;;;5.53;3.58;;;;;;;;;;5165749;27;20011;-79
2022/10/26 11:08:24;;;;;;;7.38;3.85;;;;;;;;;;5155997;27;20022;-78
2022/10/26 11:11:30;;;;;;;8.20;5.38;;;;;;;;;;5159503;27;20111;-80
2022/10/26 11:14:19;;;;;;;5.30;3.97;;;;;;;;;;5159863;27;20516;-79
2022/10/26 11:17:10;;;;;;;4.55;3.58;;;;;;;;;;5169875;27;20025;-79
2022/10/26 11:19:58;;;;;;;6.35;3.50;;;;;;;;;;5163915;27;20026;-79
2022/10/26 11:22:58;;;;;;;8.85;4.10;;;;;;;;;;5159134;27;20094;-79
2022/10/26 11:25:47;;;;;;;5.20;3.75;;;;;;;;;;5143108;27;20018;-78
2022/10/26 11:28:39;;;;;;;5.63;3.38;;;;;;;;;;5158144;27;20337;-79
2022/10/26 11:31:27;;;;;;;5.38;3.53;;;;;;;;;;5157671;27;20098;-80
2022/10/26 11:34:20;;;;;;;8.63;4.18;;;;;;;;;;5143195;27;20027;-79
2022/10/26 11:37:14;;;;;;;3.95;3.40;;;;;;;;;;5143141;27;20061;-79
2022/10/26 11:39:59;;;;;;;6.43;3.78;;;;;;;;;;5142149;27;20022;-79
2022/10/26 11:42:49;;;;;;;6.97;3.78;;;;;;;;;;5161429;27;20035;-79
2022/10/26 11:45:37;;;;;;;3.78;3.30;;;;;;;;;;5163220;27;20134;-77
2022/10/26 11:48:27;;;;;;;7.13;3.38;;;;;;;;;;5162246;27;20023;-79
2022/10/26 11:51:19;;;;;;;7.88;3.60;;;;;;;;;;5164070;27;20018;-79
2022/10/26 11:54:09;;;;;;;9.43;3.63;;;;;;;;;;5166337;27;20459;-79
2022/10/26 11:56:55;;;;;;;6.07;3.95;;;;;;;;;;5168408;27;20027;-80
2022/10/26 11:59:44;;;;;;;6.43;4.97;;;;;;;;;;5152232;27;20022;-80
2022/10/26 12:02:31;;;;;;;3.95;3.00;;;;;;;;;;5165901;27;20014;-79
2022/10/26 12:05:26;;;;;;;6.28;3.67;;;;;;;;;;5160488;27;20042;-79
2022/10/26 12:08:19;;;;;;;5.75;3.50;;;;;;;;;;5147836;27;20033;-80
2022/10/26 12:11:07;;;;;;;4.97;3.50;;;;;;;;;;5162938;27;20018;-79
2022/10/26 12:13:56;;;;;;;5.10;3.25;;;;;;;;;;5165017;27;20118;-81
2022/10/26 12:16:50;;;;;;;6.72;3.50;;;;;;;;;;5150983;27;20019;-79
2022/10/26 12:19:46;;;;;;;4.30;3.08;;;;;;;;;;5167334;27;20023;-80
2022/10/26 12:22:33;;;;;;;7.05;3.47;;;;;;;;;;5162631;27;20099;-80
2022/10/26 12:25:20;;;;;;;21.75;17.00;;;;;;;;;;5160203;27;20026;-80
2022/10/26 12:28:25;;;;;;;7.00;4.22;;;;;;;;;;5159902;27;20109;-80
2022/10/26 12:31:30;;;;;;;6.32;3.50;;;;;;;;;;5144553;27;20033;-80
2022/10/26 12:34:23;;;;;;;7.53;3.72;;;;;;;;;;5143684;27;20018;-79
2022/10/26 12:37:11;;;;;;;4.78;3.92;;;;;;;;;;5158558;27;20022;-79
2022/10/26 12:40:16;;;;;;;5.78;3.83;;;;;;;;;;5158406;27;20130;-77
2022/10/26 12:43:17;;;;;;;6.85;3.67;;;;;;;;;;5158154;27;20102;-79
2022/10/26 12:46:23;;;;;;;7.47;4.50;;;;;;;;;;5142444;27;20043;-77
2022/10/26 12:49:31;;;;;;;7.82;3.50;;;;;;;;;;5155485;27;20030;-79
2022/10/26 12:52:21;;;;;;;7.13;4.03;;;;;;;;;;5157798;27;20140;-80
2022/10/26 12:55:25;;;;;;;5.32;3.75;;;;;;;;;;5157031;27;20095;-79
2022/10/26 12:58:26;;;;;;;5.50;3.90;;;;;;;;;;5155389;27;20352;-79
2022/10/26 13:01:19;;;;;;;8.52;3.63;;;;;;;;;;5156221;27;20018;-80
2022/10/26 13:04:23;;;;;;;6.75;4.25;;;;;;;;;;5155616;27;20348;-79
2022/10/26 13:07:16;;;;;;;5.85;3.88;;;;;;;;;;5156385;27;20025;-78
2022/10/26 13:10:04;;;;;;;5.57;4.22;;;;;;;;;;5156838;27;20018;-79
2022/10/26 13:12:54;;;;;;;8.27;4.13;;;;;;;;;;5155864;27;20023;-78
2022/10/26 13:15:53;;;;;;;8.13;4.07;;;;;;;;;;5140759;27;20034;-78
2022/10/26 13:18:48;;;;;;;10.32;4.40;;;;;;;;;;5155325;27;20440;-78
2022/10/26 13:21:43;;;;;;;9.80;7.75;;;;;;;;;;5156221;27;20023;-80
2022/10/26 13:24:31;;;;;;;8.40;6.35;;;;;;;;;;5155942;27;20065;-79
2022/10/26 13:27:17;;;;;;;6.32;4.55;;;;;;;;;;5155912;27;20358;-80
2022/10/26 13:30:02;;;;;;;8.18;5.13;;;;;;;;;;5156189;27;20026;-79
2022/10/26 13:32:50;;;;;;;6.55;4.00;;;;;;;;;;5143836;27;20037;-78
2022/10/26 13:35:38;;;;;;;4.65;3.90;;;;;;;;;;5155965;27;20015;-79
2022/10/26 13:38:28;;;;;;;6.97;4.18;;;;;;;;;;5155874;27;20106;-79
2022/10/26 13:41:29;;;;;;;5.97;3.92;;;;;;;;;;5140269;27;20070;-77
2022/10/26 13:44:37;;;;;;;10.18;4.40;;;;;;;;;;5155843;27;20030;-78
2022/10/26 13:47:28;;;;;;;6.68;4.10;;;;;;;;;;5139580;27;20042;-79
2022/10/26 13:50:15;;;;;;;7.18;4.20;;;;;;;;;;5140228;27;20019;-78
2022/10/26 13:53:12;;;;;;;8.48;4.40;;;;;;;;;;5155261;27;20420;-78
2022/10/26 13:56:03;;;;;;;8.27;3.90;;;;;;;;;;5155587;27;20105;-80
2022/10/26 13:58:55;;;;;;;8.75;4.32;;;;;;;;;;5155000;27;20455;-80
2022/10/26 14:01:41;;;;;;;6.22;4.45;;;;;;;;;;5154805;27;20030;-81
2022/10/26 14:04:27;;;;;;;9.13;4.43;;;;;;;;;;5140129;27;20083;-80
2022/10/26 14:07:22;;;;;;;7.55;4.05;;;;;;;;;;5154892;27;20070;-81
2022/10/26 14:10:22;;;;;;;6.05;3.65;;;;;;;;;;5141308;27;20015;-80
2022/10/26 14:13:09;;;;;;;4.85;3.72;;;;;;;;;;5140681;27;20019;-79
2022/10/26 14:15:55;;;;;;;5.82;3.92;;;;;;;;;;5154297;27;20439;-79
2022/10/26 14:18:41;;;;;;;8.68;4.10;;;;;;;;;;5155821;27;20504;-80
2022/10/26 14:21:27;;;;;;;3.95;3.13;;;;;;;;;;5154947;27;20435;-79
2022/10/26 14:24:20;;;;;;;5.68;3.50;;;;;;;;;;5155303;27;20031;-80
2022/10/26 14:27:16;;;;;;;5.10;3.75;;;;;;;;;;5154649;27;20022;-78
2022/10/26 14:30:18;;;;;;;7.18;3.40;;;;;;;;;;5155640;27;20094;-79
2022/10/26 14:33:16;;;;;;;6.72;3.85;;;;;;;;;;5142375;27;20014;-78
2022/10/26 14:36:01;;;;;;;5.60;3.72;;;;;;;;;;5158800;27;20138;-79
2022/10/26 14:38:49;;;;;;;7.93;3.75;;;;;;;;;;5159014;27;20109;-79
2022/10/26 14:41:38;;;;;;;6.95;3.83;;;;;;;;;;5143601;27;20038;-79
2022/10/26 14:44:24;;;;;;;6.28;4.00;;;;;;;;;;5158465;27;20018;-79
2022/10/26 14:47:22;;;;;;;8.07;4.43;;;;;;;;;;5142916;27;20031;-77
2022/10/26 14:50:16;;;;;;;8.73;4.50;;;;;;;;;;5158611;27;20026;-78
2022/10/26 14:53:04;;;;;;;8.15;4.82;;;;;;;;;;5143907;27;20031;-79
2022/10/26 14:55:50;;;;;;;7.30;4.22;;;;;;;;;;5144375;27;20056;-78
2022/10/26 14:58:36;;;;;;;6.45;4.45;;;;;;;;;;5142720;27;20025;-73
2022/10/26 15:01:21;;;;;;;8.50;4.68;;;;;;;;;;5158039;27;20019;-75
2022/10/26 15:04:25;;;;;;;8.73;5.40;;;;;;;;;;5157854;27;20348;-76
2022/10/26 15:07:10;;;;;;;11.02;6.22;;;;;;;;;;5157762;27;20022;-76
2022/10/26 15:09:56;;;;;;;14.25;5.80;;;;;;;;;;5157403;27;20025;-77
2022/10/26 15:12:41;;;;;;;14.18;5.88;;;;;;;;;;5158387;27;20321;-75
2022/10/26 15:15:27;;;;;;;17.40;5.20;;;;;;;;;;5160655;27;20175;-74
2022/10/26 15:18:18;;;;;;;10.43;6.20;;;;;;;;;;5158594;27;20030;-75
2022/10/26 15:21:17;;;;;;;19.55;10.13;;;;;;;;;;5159403;27;20094;-75
2022/10/26 15:24:11;;;;;;;31.42;17.05;;;;;;;;;;5158101;27;20014;-75
2022/10/26 15:26:57;;;;;;;30.65;15.50;;;;;;;;;;5158284;27;20018;-75
2022/10/26 15:29:44;;;;;;;27.27;14.63;;;;;;;;;;5158419;27;20428;-75
2022/10/26 15:32:31;;;;;;;29.13;13.45;;;;;;;;;;5157718;27;20026;-75
2022/10/26 15:35:16;;;;;;;31.30;14.38;;;;;;;;;;5141975;27;20056;-75
2022/10/26 15:38:02;;;;;;;47.67;19.08;;;;;;;;;;5141956;27;20029;-75
2022/10/26 15:40:47;;;;;;;48.38;18.65;;;;;;;;;;5157663;27;20028;-76
2022/10/26 15:43:33;;;;;;;52.97;18.83;;;;;;;;;;5157229;27;20030;-77
2022/10/26 15:46:21;;;;;;;47.88;20.60;;;;;;;;;;5156255;27;20058;-75
2022/10/26 15:49:13;;;;;;;51.40;20.90;;;;;;;;;;5156809;27;20463;-73
2022/10/26 15:51:58;;;;;;;44.25;21.10;;;;;;;;;;5157838;27;20417;-74
2022/10/26 15:54:45;;;;;;;55.58;22.38;;;;;;;;;;5155809;27;20023;-76
2022/10/26 15:57:30;;;;;;;50.03;20.70;;;;;;;;;;5156755;27;20026;-76
2022/10/26 16:00:16;;;;;;;47.85;19.08;;;;;;;;;;5141153;27;20118;-76
2022/10/26 16:03:02;;;;;;;47.90;18.58;;;;;;;;;;5141225;27;20019;-77
2022/10/26 16:05:50;;;;;;;49.33;20.75;;;;;;;;;;5156063;27;20044;-75
2022/10/26 16:08:36;;;;;;;47.08;20.27;;;;;;;;;;5156344;27;20023;-77
2022/10/26 16:11:21;;;;;;;55.95;21.15;;;;;;;;;;5156851;27;20011;-75
2022/10/26 16:14:08;;;;;;;44.83;19.63;;;;;;;;;;5156692;27;20451;-75
2022/10/26 16:16:54;;;;;;;46.75;18.63;;;;;;;;;;5156608;27;20485;-76
2022/10/26 16:19:39;;;;;;;45.85;19.60;;;;;;;;;;5156313;27;20023;-76
2022/10/26 16:22:25;;;;;;;42.05;19.15;;;;;;;;;;5156277;27;20018;-75
2022/10/26 16:25:10;;;;;;;42.63;18.25;;;;;;;;;;5140827;27;20021;-75
2022/10/26 16:27:56;;;;;;;45.25;18.98;;;;;;;;;;5156117;27;20446;-74
2022/10/26 16:30:42;;;;;;;50.70;20.58;;;;;;;;;;5156557;27;20023;-74
2022/10/26 16:33:28;;;;;;;55.00;20.95;;;;;;;;;;5156470;27;20061;-75
2022/10/26 16:36:13;;;;;;;51.85;20.90;;;;;;;;;;5155176;27;20014;-75
2022/10/26 16:38:59;;;;;;;53.35;22.10;;;;;;;;;;5155742;27;20019;-75
2022/10/26 16:41:47;;;;;;;50.53;21.30;;;;;;;;;;5156360;27;20025;-75
2022/10/26 16:44:32;;;;;;;46.70;21.55;;;;;;;;;;5155233;27;20023;-75
2022/10/26 16:47:18;;;;;;;46.22;20.38;;;;;;;;;;5156486;27;20050;-76
2022/10/26 16:50:04;;;;;;;52.05;21.30;;;;;;;;;;5144142;27;20022;-75
2022/10/26 16:52:52;;;;;;;53.50;21.08;;;;;;;;;;5155651;27;20412;-77
2022/10/26 16:55:38;;;;;;;61.92;22.00;;;;;;;;;;5172577;27;20018;-73
2022/10/26 16:58:24;;;;;;;54.22;20.52;;;;;;;;;;5156438;27;20425;-75
2022/10/26 17:01:11;;;;;;;49.25;20.98;;;;;;;;;;5156162;27;20087;-75
2022/10/26 17:03:57;;;;;;;50.40;20.90;;;;;;;;;;5140474;27;20023;-75
2022/10/26 17:06:43;;;;;;;55.17;22.92;;;;;;;;;;5155416;27;20394;-74
2022/10/26 17:09:28;;;;;;;55.50;22.92;;;;;;;;;;5155285;27;20018;-73
2022/10/26 17:12:14;;;;;;;55.72;21.48;;;;;;;;;;5155987;27;20317;-76
2022/10/26 17:15:00;;;;;;;49.83;23.65;;;;;;;;;;5154829;27;20090;-76
2022/10/26 17:17:45;;;;;;;55.58;24.67;;;;;;;;;;5140387;27;20023;-75
2022/10/26 17:20:31;;;;;;;58.17;25.20;;;;;;;;;;5154923;27;20011;-75
2022/10/26 17:23:17;;;;;;;60.92;24.55;;;;;;;;;;5155797;27;20011;-75
2022/10/26 17:26:09;;;;;;;51.17;25.00;;;;;;;;;;5156437;27;20025;-77
2022/10/26 17:28:56;;;;;;;54.58;25.95;;;;;;;;;;5143179;27;20022;-74
2022/10/26 17:31:41;;;;;;;60.85;26.48;;;;;;;;;;5156411;27;20102;-75
2022/10/26 17:34:27;;;;;;;48.22;26.10;;;;;;;;;;5154946;27;20027;-75
2022/10/26 17:37:12;;;;;;;60.60;27.10;;;;;;;;;;5155052;27;20462;-74
2022/10/26 17:39:58;;;;;;;47.97;26.02;;;;;;;;;;5155853;27;20023;-75
2022/10/26 17:42:44;;;;;;;58.35;27.25;;;;;;;;;;5155740;27;20015;-77
2022/10/26 17:45:29;;;;;;;55.95;25.98;;;;;;;;;;5139217;27;20358;-76
2022/10/26 17:48:15;;;;;;;54.83;25.50;;;;;;;;;;5155521;27;20413;-75
2022/10/26 17:51:01;;;;;;;53.70;25.65;;;;;;;;;;5155667;27;20030;-74
2022/10/26 17:53:48;;;;;;;47.20;25.13;;;;;;;;;;5141069;27;20022;-75
2022/10/26 17:56:33;;;;;;;59.22;26.27;;;;;;;;;;5154601;27;20025;-76
2022/10/26 17:59:19;;;;;;;56.20;25.67;;;;;;;;;;5154945;27;20401;-75
2022/10/26 18:02:05;;;;;;;57.40;28.42;;;;;;;;;;5155440;27;20097;-75
2022/10/26 18:04:50;;;;;;;56.47;27.77;;;;;;;;;;5155420;27;20018;-78
2022/10/26 18:07:36;;;;;;;59.42;27.35;;;;;;;;;;5158209;27;20018;-75
2022/10/26 18:10:22;;;;;;;65.05;29.45;;;;;;;;;;5159832;27;20034;-75
2022/10/26 18:13:08;;;;;;;61.72;28.05;;;;;;;;;;5159167;27;20369;-74
2022/10/26 18:15:53;;;;;;;65.10;29.40;;;;;;;;;;5159224;27;20074;-75
2022/10/26 18:18:40;;;;;;;67.00;28.63;;;;;;;;;;5159619;27;20018;-75
2022/10/26 18:21:26;;;;;;;57.35;28.75;;;;;;;;;;5158015;27;20023;-77
2022/10/26 18:24:11;;;;;;;51.45;26.55;;;;;;;;;;5143710;27;20504;-75
2022/10/26 18:26:57;;;;;;;68.18;29.63;;;;;;;;;;5158251;27;20458;-74
2022/10/26 18:29:43;;;;;;;54.38;27.92;;;;;;;;;;5159371;27;20054;-76
2022/10/26 18:32:28;;;;;;;57.28;28.35;;;;;;;;;;5143458;27;20026;-76
2022/10/26 18:35:14;;;;;;;58.60;28.02;;;;;;;;;;5158582;27;20030;-75
2022/10/26 18:38:00;;;;;;;61.92;29.70;;;;;;;;;;5142898;27;20033;-75
2022/10/26 18:40:50;;;;;;;61.45;28.40;;;;;;;;;;5143532;27;20019;-74
2022/10/26 18:43:39;;;;;;;66.00;29.38;;;;;;;;;;5158378;27;20019;-73
2022/10/26 18:46:26;;;;;;;58.65;29.25;;;;;;;;;;5157994;27;20046;-74
2022/10/26 18:49:13;;;;;;;56.30;27.77;;;;;;;;;;5142623;27;20030;-75
2022/10/26 18:51:59;;;;;;;51.75;27.75;;;;;;;;;;5158686;27;20018;-74
2022/10/26 18:54:44;;;;;;;54.15;27.05;;;;;;;;;;5157948;27;20038;-75
2022/10/26 18:57:30;;;;;;;53.30;27.95;;;;;;;;;;5158324;27;20026;-75
2022/10/26 19:00:15;;;;;;;52.55;28.55;;;;;;;;;;5158164;27;20023;-75
2022/10/26 19:03:03;;;;;;;53.88;29.45;;;;;;;;;;5157557;27;20034;-74
2022/10/26 19:05:49;;;;;;;67.70;31.92;;;;;;;;;;5144318;27;20025;-75
2022/10/26 19:08:34;;;;;;;67.97;34.17;;;;;;;;;;5158045;27;20479;-75
2022/10/26 19:11:21;;;;;;;65.75;33.22;;;;;;;;;;5157912;27;20106;-76
2022/10/26 19:14:07;;;;;;;63.17;32.80;;;;;;;;;;5157363;27;20030;-75
2022/10/26 19:16:53;;;;;;;62.33;31.00;;;;;;;;;;5144432;27;20034;-75
2022/10/26 19:19:38;;;;;;;65.43;32.45;;;;;;;;;;5157664;27;20046;-76
2022/10/26 19:22:24;;;;;;;59.83;30.83;;;;;;;;;;5157676;27;20340;-78
2022/10/26 19:25:10;;;;;;;56.72;29.15;;;;;;;;;;5158219;27;20094;-77
2022/10/26 19:27:55;;;;;;;63.42;30.48;;;;;;;;;;5159424;27;20428;-76
2022/10/26 19:30:41;;;;;;;49.58;29.13;;;;;;;;;;5157663;27;20072;-75
2022/10/26 19:33:26;;;;;;;47.85;27.52;;;;;;;;;;5157900;27;20025;-74
2022/10/26 19:36:12;;;;;;;49.85;26.98;;;;;;;;;;5157751;27;20442;-75
2022/10/26 19:38:58;;;;;;;49.95;25.13;;;;;;;;;;5157104;27;20440;-75
2022/10/26 19:41:44;;;;;;;44.95;25.05;;;;;;;;;;5158412;27;20080;-77
2022/10/26 19:44:29;;;;;;;44.75;25.20;;;;;;;;;;5156995;27;20026;-75
2022/10/26 19:47:15;;;;;;;39.33;24.02;;;;;;;;;;5142678;27;20025;-73
2022/10/26 19:50:00;;;;;;;44.75;24.35;;;;;;;;;;5141572;27;20441;-74
2022/10/26 19:52:46;;;;;;;40.78;23.15;;;;;;;;;;5157522;27;20023;-74
2022/10/26 19:55:31;;;;;;;40.63;23.55;;;;;;;;;;5157688;27;20027;-77
2022/10/26 19:58:17;;;;;;;43.70;23.80;;;;;;;;;;5156675;27;20355;-74
2022/10/26 20:01:03;;;;;;;43.58;22.85;;;;;;;;;;5157434;27;20063;-76
2022/10/26 20:03:48;;;;;;;37.17;21.90;;;;;;;;;;5156605;27;20630;-75
2022/10/26 20:06:34;;;;;;;39.03;22.60;;;;;;;;;;5157421;27;20018;-75
2022/10/26 20:09:19;;;;;;;43.88;21.73;;;;;;;;;;5156904;27;20023;-75
2022/10/26 20:12:06;;;;;;;35.50;21.20;;;;;;;;;;5157562;27;20101;-75
2022/10/26 20:14:51;;;;;;;43.30;22.52;;;;;;;;;;5156438;27;20034;-77
2022/10/26 20:17:37;;;;;;;37.42;21.92;;;;;;;;;;5156894;27;20023;-76
2022/10/26 20:20:22;;;;;;;40.75;21.77;;;;;;;;;;5141674;27;20066;-75
2022/10/26 20:23:09;;;;;;;33.97;19.50;;;;;;;;;;5141708;27;20015;-77
2022/10/26 20:25:55;;;;;;;25.50;14.68;;;;;;;;;;5143718;27;20023;-75
2022/10/26 20:28:44;;;;;;;20.90;13.00;;;;;;;;;;5156668;27;20105;-75
2022/10/26 20:31:30;;;;;;;21.00;11.93;;;;;;;;;;5139766;27;20069;-76
2022/10/26 20:34:15;;;;;;;19.83;11.30;;;;;;;;;;5157614;27;20352;-76
2022/10/26 20:37:01;;;;;;;18.08;11.35;;;;;;;;;;5156948;27;20034;-76
2022/10/26 20:39:47;;;;;;;16.77;10.88;;;;;;;;;;5141162;27;20015;-77
2022/10/26 20:42:32;;;;;;;15.02;10.23;;;;;;;;;;5156111;27;20015;-76
2022/10/26 20:45:21;;;;;;;15.82;10.45;;;;;;;;;;5139871;27;20053;-77
2022/10/26 20:48:10;;;;;;;16.27;10.38;;;;;;;;;;5156199;27;20018;-78
2022/10/26 20:51:01;;;;;;;13.68;9.43;;;;;;;;;;5156232;27;20023;-75
2022/10/26 20:53:50;;;;;;;13.63;8.80;;;;;;;;;;5156056;27;20037;-75
2022/10/26 20:56:40;;;;;;;13.75;8.57;;;;;;;;;;5155267;27;20014;-77
2022/10/26 20:59:32;;;;;;;13.57;8.50;;;;;;;;;;5156202;27;20029;-76
2022/10/26 21:02:19;;;;;;;14.40;7.88;;;;;;;;;;5155889;27;20406;-76
2022/10/26 21:05:05;;;;;;;14.75;7.57;;;;;;;;;;5156027;27;20029;-77
2022/10/26 21:07:51;;;;;;;13.35;7.72;;;;;;;;;;5139764;27;20014;-76
2022/10/26 21:10:36;;;;;;;13.43;7.97;;;;;;;;;;5155044;27;20097;-76
2022/10/26 21:13:22;;;;;;;11.80;7.85;;;;;;;;;;5140958;27;20031;-76
2022/10/26 21:16:07;;;;;;;11.55;7.82;;;;;;;;;;5140613;27;20007;-76
2022/10/26 21:18:53;;;;;;;13.35;8.25;;;;;;;;;;5140442;27;20389;-77
2022/10/26 21:21:38;;;;;;;19.35;9.27;;;;;;;;;;5141530;27;20445;-77
2022/10/26 21:24:24;;;;;;;15.70;8.90;;;;;;;;;;5155843;27;20061;-76
2022/10/26 21:27:10;;;;;;;12.98;8.82;;;;;;;;;;5156823;27;20022;-76
2022/10/26 21:29:55;;;;;;;15.23;8.95;;;;;;;;;;5156620;27;20424;-77
2022/10/26 21:32:41;;;;;;;17.25;9.57;;;;;;;;;;5157881;27;20030;-76
2022/10/26 21:35:26;;;;;;;15.65;9.45;;;;;;;;;;5144661;27;20163;-77
2022/10/26 21:38:12;;;;;;;17.10;9.38;;;;;;;;;;5155397;27;20075;-76
2022/10/26 21:41:02;;;;;;;16.55;10.57;;;;;;;;;;5157028;27;20011;-77
2022/10/26 21:43:49;;;;;;;15.55;10.85;;;;;;;;;;5161353;27;20057;-77
2022/10/26 21:46:35;;;;;;;19.98;11.45;;;;;;;;;;5161677;27;20043;-77
2022/10/26 21:49:21;;;;;;;20.15;11.75;;;;;;;;;;5161436;27;20038;-77
2022/10/26 21:52:07;;;;;;;17.02;11.32;;;;;;;;;;5162515;27;20118;-77
2022/10/26 21:54:52;;;;;;;21.33;11.30;;;;;;;;;;5169670;27;20018;-76
2022/10/26 21:57:39;;;;;;;22.10;12.65;;;;;;;;;;5162610;27;20019;-77
2022/10/26 22:00:24;;;;;;;25.25;13.85;;;;;;;;;;5147829;27;20030;-76
2022/10/26 22:03:10;;;;;;;24.35;13.52;;;;;;;;;;5162725;27;20043;-76
2022/10/26 22:05:55;;;;;;;28.05;15.85;;;;;;;;;;5162588;27;20022;-77
2022/10/26 22:08:41;;;;;;;28.13;16.08;;;;;;;;;;5162076;27;20038;-75
2022/10/26 22:11:27;;;;;;;26.25;16.42;;;;;;;;;;5147571;27;20022;-76
2022/10/26 22:14:14;;;;;;;24.23;14.55;;;;;;;;;;5162705;27;20065;-75
2022/10/26 22:16:59;;;;;;;26.67;13.70;;;;;;;;;;5161949;27;20432;-74
2022/10/26 22:19:45;;;;;;;23.33;13.85;;;;;;;;;;5161986;27;20030;-76
2022/10/26 22:22:30;;;;;;;23.88;12.40;;;;;;;;;;5161922;27;20059;-77